Current Weather

Heathrow

Heathrow, United Kingdom (EGLL)

Report from: Monday, May 23, 2022 7:50 AM BST
Current time: Monday, May 23, 2022 8:17 AM BST

Nearby weather
Weather history
Weather forecast

Temperature14.0°C (57.2°F)
Dew point10.0°C (50.0°F)
Winds 5 kts (2.6 m/s, 5.8 mph) West (280°)
Visibility6.2 mi. (10 km)
Altimeter29.62 in.Hg (1003 mB)
Relative humidity77 %
Density altitude404 ft. (123 m)
Remarks Fully automated report
Corrected report
No significant changes expected in the next two hours
Flight conditions Visual Meteorological Conditions
Raw dataCOR EGLL 230650Z AUTO 28005KT 9999 NCD 14/10 Q1003 NOSIG
An error has occurred. This application may no longer respond until reloaded. Reload 🗙